Time;durP1;ratioP1;P1;durP2;ratioP2;P2;SDS_P1;SDS_P2;PMS_P1;PMS_P2;Temp;Humidity;BMP_temperature;BMP_pressure;BME280_temperature;BME280_humidity;BME280_pressure;Samples;Min_cycle;Max_cycle;Signal;HPM_P1;HPM_P2
2022/11/25 00:34:04;;;;;;;14.30;4.72;;;6.30;94.90;;;;;;4998029;28;20033;-73
2022/11/25 00:36:33;;;;;;;11.15;3.65;;;6.20;96.90;;;;;;5013948;28;20057;-73
2022/11/25 00:39:01;;;;;;;14.57;4.28;;;6.40;92.00;;;;;;4996899;28;20137;-73
2022/11/25 00:46:58;;;;;;;14.55;4.00;;;;;;;;;;5010865;28;20046;-74
2022/11/25 00:49:24;;;;;;;13.35;5.18;;;6.30;96.60;;;;;;5014060;28;20049;-73
2022/11/25 00:51:52;;;;;;;13.68;3.13;;;6.40;96.80;;;;;;5013413;28;20057;-73
2022/11/25 00:54:19;;;;;;;15.95;3.63;;;6.60;96.80;;;;;;5013845;28;20487;-74
2022/11/25 00:56:46;;;;;;;13.50;3.83;;;;;;;;;;5013511;28;20050;-74
2022/11/25 00:59:13;;;;;;;16.95;3.60;;;;;;;;;;4995311;28;20060;-74
2022/11/25 01:01:40;;;;;;;12.57;3.13;;;;;;;;;;4993231;28;20146;-74
2022/11/25 01:04:07;;;;;;;11.07;3.50;;;;;;;;;;4993919;28;20060;-74
2022/11/25 01:06:35;;;;;;;13.05;3.30;;;;;;;;;;4993731;28;20053;-74
2022/11/25 01:09:03;;;;;;;15.15;3.53;;;6.60;96.60;;;;;;5009935;28;20142;-74
2022/11/25 01:11:30;;;;;;;12.70;3.92;;;;;;;;;;5012771;28;20484;-74
2022/11/25 01:13:57;;;;;;;10.73;3.30;;;;;;;;;;5010843;28;20510;-74
2022/11/25 01:16:24;;;;;;;11.82;3.20;;;6.80;94.00;;;;;;4993639;28;20081;-74
2022/11/25 01:18:51;;;;;;;13.52;3.70;;;;;;;;;;4993672;28;20088;-74
2022/11/25 01:21:19;;;;;;;14.65;3.30;;;6.90;96.50;;;;;;4993257;28;20484;-74
2022/11/25 01:23:47;;;;;;;12.38;3.53;;;7.80;96.80;;;;;;5009951;28;20058;-74
2022/11/25 01:26:16;;;;;;;19.55;4.22;;;6.80;96.50;;;;;;5014074;28;20086;-74
2022/11/25 01:28:43;;;;;;;13.60;3.35;;;7.60;96.70;;;;;;5012850;28;20085;-74
2022/11/25 01:31:10;;;;;;;14.85;3.28;;;;;;;;;;5012356;28;20188;-74
2022/11/25 01:33:37;;;;;;;15.32;2.65;;;;;;;;;;5013184;28;20157;-74
2022/11/25 01:36:05;;;;;;;17.45;3.13;;;6.80;96.40;;;;;;4992901;28;20133;-74
2022/11/25 01:38:32;;;;;;;10.73;3.50;;;;;;;;;;4992708;28;20419;-74
2022/11/25 01:40:59;;;;;;;9.57;3.55;;;;;;;;;;4992635;28;20137;-74
2022/11/25 01:43:27;;;;;;;9.73;3.30;;;7.00;92.10;;;;;;5003927;28;20056;-74
2022/11/25 01:45:54;;;;;;;13.18;3.28;;;;;;;;;;5012622;28;20053;-74
2022/11/25 01:48:24;;;;;;;10.02;3.10;;;6.50;96.10;;;;;;5012570;28;20495;-74
2022/11/25 01:50:51;;;;;;;12.35;3.20;;;;;;;;;;4998825;28;20487;-74
2022/11/25 01:53:18;;;;;;;12.88;3.78;;;;;;;;;;4993214;28;20058;-74
2022/11/25 01:55:46;;;;;;;11.25;3.38;;;;;;;;;;4993131;28;20046;-74
2022/11/25 01:58:14;;;;;;;13.48;3.63;;;6.70;89.00;;;;;;4992328;28;20134;-74
2022/11/25 02:00:49;;;;;;;18.35;3.67;;;6.80;96.50;;;;;;5003600;28;20103;-74
2022/11/25 02:03:17;;;;;;;15.95;3.65;;;6.90;92.80;;;;;;5012635;28;20083;-74
2022/11/25 02:05:48;;;;;;;14.65;3.15;;;6.90;96.30;;;;;;5012150;28;20132;-74
2022/11/25 02:08:15;;;;;;;18.30;3.60;;;;;;;;;;5011994;28;20053;-74
2022/11/25 02:10:42;;;;;;;13.65;3.20;;;7.00;96.50;;;;;;5010374;28;20060;-74
2022/11/25 02:13:09;;;;;;;13.75;3.67;;;;;;;;;;5012098;28;20064;-74
2022/11/25 02:15:35;;;;;;;14.85;3.95;;;7.00;96.30;;;;;;5010307;28;20586;-74
2022/11/25 02:18:04;;;;;;;13.52;3.60;;;6.80;88.90;;;;;;5009387;28;20098;-74
2022/11/25 02:20:31;;;;;;;10.63;3.20;;;;;;;;;;5011440;28;20054;-74
2022/11/25 02:23:00;;;;;;;19.10;3.80;;;6.90;96.40;;;;;;5012171;28;20136;-74
2022/11/25 02:25:29;;;;;;;11.13;3.35;;;6.70;90.60;;;;;;5012036;28;20487;-74
2022/11/25 02:27:57;;;;;;;14.60;3.45;;;7.00;96.20;;;;;;4995194;28;20046;-74
2022/11/25 02:30:24;;;;;;;14.70;3.58;;;7.80;92.20;;;;;;4991923;28;20060;-73
2022/11/25 02:32:51;;;;;;;15.25;3.40;;;;;;;;;;4992125;28;20681;-73
2022/11/25 02:35:28;;;;;;;14.38;3.92;;;6.40;96.10;;;;;;4992241;28;20054;-73
2022/11/25 02:37:58;;;;;;;10.63;3.30;;;7.00;92.40;;;;;;5007324;28;20468;-74
2022/11/25 02:40:26;;;;;;;12.77;3.88;;;7.30;92.00;;;;;;5004272;28;20141;-74
2022/11/25 02:42:54;;;;;;;14.75;3.40;;;6.80;96.10;;;;;;5011840;28;20050;-74
2022/11/25 02:45:22;;;;;;;14.95;3.60;;;6.90;88.70;;;;;;5011351;28;20053;-74
2022/11/25 02:47:49;;;;;;;15.23;3.50;;;;;;;;;;4996195;28;20077;-74
2022/11/25 02:50:16;;;;;;;15.00;3.58;;;6.10;95.90;;;;;;4991532;28;20084;-74
2022/11/25 02:52:44;;;;;;;10.35;3.42;;;;;;;;;;4992971;28;20064;-74
2022/11/25 02:55:10;;;;;;;14.18;3.80;;;7.00;96.30;;;;;;4991642;28;20058;-74
2022/11/25 02:57:37;;;;;;;9.77;3.38;;;6.90;96.20;;;;;;4991643;28;20054;-74
2022/11/25 03:00:07;;;;;;;12.02;3.25;;;6.80;90.60;;;;;;4991381;28;20088;-73
2022/11/25 03:02:34;;;;;;;15.20;3.63;;;;;;;;;;4991685;28;20097;-73
2022/11/25 03:05:01;;;;;;;12.93;3.53;;;;;;;;;;4991287;28;20054;-73
2022/11/25 03:07:28;;;;;;;11.82;3.50;;;;;;;;;;5003177;28;20089;-74
2022/11/25 03:09:55;;;;;;;12.02;3.90;;;;;;;;;;5011123;28;20065;-73
2022/11/25 03:12:23;;;;;;;13.85;3.10;;;;;;;;;;5011240;28;20057;-73
2022/11/25 03:14:49;;;;;;;14.18;3.65;;;7.00;96.50;;;;;;5010683;28;20075;-72
2022/11/25 03:17:17;;;;;;;12.57;3.83;;;6.80;89.40;;;;;;5000558;28;20054;-72
2022/11/25 03:19:44;;;;;;;13.18;3.65;;;;;;;;;;4992590;28;20495;-72
2022/11/25 03:22:11;;;;;;;15.23;3.97;;;6.30;96.30;;;;;;4990253;28;20496;-72
2022/11/25 03:24:38;;;;;;;12.77;3.40;;;6.90;96.40;;;;;;4991131;28;20054;-72
2022/11/25 03:27:05;;;;;;;17.23;3.90;;;;;;;;;;4999512;28;20052;-72
2022/11/25 03:29:32;;;;;;;16.20;4.50;;;6.80;96.80;;;;;;5011126;28;20068;-72
2022/11/25 03:31:59;;;;;;;17.77;3.83;;;;;;;;;;5010583;28;20054;-72
2022/11/25 03:34:27;;;;;;;9.23;3.65;;;6.80;93.90;;;;;;5010735;28;20060;-72
2022/11/25 03:36:54;;;;;;;14.75;3.80;;;;;;;;;;5003672;28;20054;-72
2022/11/25 03:39:22;;;;;;;9.60;3.10;;;;;;;;;;4991501;28;20054;-73
2022/11/25 03:41:49;;;;;;;20.30;4.95;;;;;;;;;;4990863;28;20176;-73
2022/11/25 03:44:16;;;;;;;15.25;3.72;;;5.80;94.80;;;;;;4990935;28;20060;-73
2022/11/25 03:46:43;;;;;;;10.77;3.78;;;;;;;;;;4995967;28;20142;-73
2022/11/25 03:49:10;;;;;;;17.35;4.30;;;6.20;97.00;;;;;;5011008;28;20056;-73
2022/11/25 03:51:38;;;;;;;14.23;3.67;;;6.70;97.10;;;;;;5010386;28;20054;-73
2022/11/25 03:54:04;;;;;;;12.63;3.75;;;6.80;97.10;;;;;;4994432;28;20503;-73
2022/11/25 03:56:32;;;;;;;14.15;4.03;;;;;;;;;;5007108;28;20135;-73
2022/11/25 03:58:58;;;;;;;13.35;4.05;;;6.60;97.10;;;;;;4990935;28;20061;-73
2022/11/25 04:01:25;;;;;;;15.52;4.10;;;;;;;;;;4990537;28;20054;-73
2022/11/25 04:03:52;;;;;;;16.17;4.07;;;;;;;;;;4990601;28;20053;-73
2022/11/25 04:06:20;;;;;;;15.75;3.58;;;;;;;;;;4992495;28;20064;-73
2022/11/25 04:08:49;;;;;;;12.40;3.20;;;6.80;90.30;;;;;;5011814;28;20058;-73
2022/11/25 04:11:16;;;;;;;16.67;3.60;;;;;;;;;;5009980;28;20137;-73
2022/11/25 04:13:41;;;;;;;19.35;3.55;;;6.50;92.90;;;;;;5010431;28;20060;-73
2022/11/25 04:16:16;;;;;;;16.70;4.38;;;6.70;94.80;;;;;;5010332;28;20554;-72
2022/11/25 04:18:43;;;;;;;12.63;3.90;;;7.00;97.20;;;;;;4971436;28;20055;-73
2022/11/25 04:21:09;;;;;;;16.23;4.22;;;6.80;97.00;;;;;;4970963;28;20054;-72
2022/11/25 04:23:36;;;;;;;16.50;3.60;;;;;;;;;;4971273;28;20081;-72
2022/11/25 04:26:04;;;;;;;18.85;4.18;;;6.90;96.00;;;;;;4984537;28;20049;-73
2022/11/25 04:28:31;;;;;;;16.73;4.00;;;7.00;97.30;;;;;;5010473;28;20064;-73
2022/11/25 04:30:58;;;;;;;12.60;3.80;;;;;;;;;;5009776;28;20451;-72
2022/11/25 04:33:25;;;;;;;11.52;4.07;;;7.00;97.40;;;;;;5010592;28;20153;-72
2022/11/25 04:35:52;;;;;;;17.45;4.47;;;6.90;97.30;;;;;;5010616;28;20074;-72
2022/11/25 04:38:19;;;;;;;18.77;4.38;;;;;;;;;;4994017;28;20510;-72
2022/11/25 04:40:45;;;;;;;13.20;3.95;;;7.30;96.90;;;;;;4993946;28;20389;-73
2022/11/25 04:43:13;;;;;;;16.55;3.72;;;7.80;97.10;;;;;;4995317;28;20062;-72
2022/11/25 04:45:40;;;;;;;17.30;4.35;;;7.10;97.30;;;;;;4997622;28;20085;-72
2022/11/25 04:48:07;;;;;;;18.58;3.83;;;;;;;;;;5013936;28;20050;-72
2022/11/25 04:50:34;;;;;;;15.43;3.67;;;;;;;;;;5014065;28;20054;-72
2022/11/25 04:53:02;;;;;;;21.48;4.10;;;;;;;;;;5013165;28;20076;-72
2022/11/25 04:55:28;;;;;;;15.13;4.32;;;7.10;97.20;;;;;;5013926;28;20557;-72
2022/11/25 04:57:55;;;;;;;21.77;4.03;;;;;;;;;;4994077;28;20130;-73
2022/11/25 05:00:22;;;;;;;18.55;3.72;;;6.90;90.60;;;;;;4993637;28;20065;-73
2022/11/25 05:02:49;;;;;;;16.23;4.10;;;;;;;;;;4995063;28;20411;-73
2022/11/25 05:05:16;;;;;;;11.80;4.30;;;7.10;97.60;;;;;;4993758;28;20141;-73
2022/11/25 05:07:43;;;;;;;12.05;4.22;;;;;;;;;;5012483;28;20500;-73
2022/11/25 05:10:10;;;;;;;19.42;4.22;;;;;;;;;;5012983;28;20053;-73
2022/11/25 05:12:37;;;;;;;28.52;4.82;;;;;;;;;;5013043;28;20064;-73
2022/11/25 05:15:05;;;;;;;16.92;3.88;;;6.90;95.00;;;;;;5013209;28;20056;-73
2022/11/25 05:17:33;;;;;;;14.15;3.85;;;7.10;92.80;;;;;;4995879;28;20051;-73
2022/11/25 05:20:00;;;;;;;13.48;4.05;;;7.00;95.80;;;;;;4992971;28;20058;-73
2022/11/25 05:22:28;;;;;;;11.57;3.88;;;7.20;97.50;;;;;;4993828;28;20137;-73
2022/11/25 05:24:54;;;;;;;14.85;3.90;;;7.00;97.50;;;;;;5009507;28;20081;-73
2022/11/25 05:27:21;;;;;;;23.60;3.95;;;7.10;95.20;;;;;;5008423;28;20060;-73
2022/11/25 05:29:48;;;;;;;11.93;3.63;;;6.70;95.50;;;;;;5013240;28;20057;-72
2022/11/25 05:32:15;;;;;;;17.77;4.28;;;6.90;97.60;;;;;;5012648;28;20380;-73
2022/11/25 05:34:43;;;;;;;19.65;3.92;;;6.50;97.40;;;;;;5012841;28;20061;-72
2022/11/25 05:37:10;;;;;;;17.15;4.35;;;;;;;;;;4998967;28;20058;-72
2022/11/25 05:39:37;;;;;;;14.30;4.10;;;7.20;97.70;;;;;;4994271;28;20057;-72
2022/11/25 05:42:04;;;;;;;14.50;3.83;;;;;;;;;;4993091;28;20055;-72
2022/11/25 05:44:31;;;;;;;12.63;4.03;;;6.60;97.40;;;;;;4993140;28;20076;-72
2022/11/25 05:46:58;;;;;;;18.35;3.80;;;;;;;;;;4991538;28;20058;-72
2022/11/25 05:49:24;;;;;;;18.73;4.50;;;7.00;93.00;;;;;;4992415;28;20057;-72
2022/11/25 05:51:53;;;;;;;19.23;4.75;;;7.80;97.70;;;;;;5022385;28;20050;-72
2022/11/25 05:54:19;;;;;;;13.50;4.25;;;7.10;91.30;;;;;;4991735;28;20070;-72
2022/11/25 05:56:46;;;;;;;18.30;4.07;;;;;;;;;;4991942;28;20058;-72
2022/11/25 05:59:13;;;;;;;15.65;4.20;;;;;;;;;;5023595;28;20141;-72
2022/11/25 06:01:40;;;;;;;20.75;4.72;;;8.20;97.80;;;;;;4990775;28;20046;-72
2022/11/25 06:04:07;;;;;;;18.35;4.25;;;7.30;93.80;;;;;;4993263;28;20403;-72
2022/11/25 06:06:34;;;;;;;16.85;4.95;;;7.00;97.70;;;;;;4992118;28;20050;-72
2022/11/25 06:09:02;;;;;;;12.90;4.28;;;7.20;97.60;;;;;;4991197;28;20050;-72
2022/11/25 06:11:28;;;;;;;20.42;4.25;;;7.20;97.70;;;;;;5005210;28;20054;-72
2022/11/25 06:13:56;;;;;;;16.67;4.43;;;7.10;90.90;;;;;;4992924;28;20053;-71
2022/11/25 06:16:23;;;;;;;16.50;4.65;;;;;;;;;;5025040;28;20054;-72
2022/11/25 06:18:50;;;;;;;20.00;4.72;;;7.20;97.60;;;;;;5023810;28;20044;-72
2022/11/25 06:21:17;;;;;;;16.77;4.30;;;6.40;97.40;;;;;;4992222;28;20097;-72
2022/11/25 06:23:44;;;;;;;18.02;4.75;;;;;;;;;;4990708;28;20054;-72
2022/11/25 06:26:14;;;;;;;17.10;4.50;;;7.20;91.00;;;;;;4993171;28;20047;-72
2022/11/25 06:28:41;;;;;;;13.85;4.32;;;7.40;97.60;;;;;;4991245;28;20042;-72
2022/11/25 06:31:08;;;;;;;20.25;4.88;;;;;;;;;;4990153;28;20050;-72
2022/11/25 06:33:35;;;;;;;17.17;5.10;;;6.30;93.80;;;;;;4988446;28;20068;-73
2022/11/25 06:36:03;;;;;;;15.15;4.35;;;6.40;97.40;;;;;;4992650;28;20076;-73
2022/11/25 06:38:29;;;;;;;18.25;4.80;;;7.30;94.30;;;;;;4990155;28;20081;-72
2022/11/25 06:40:59;;;;;;;17.77;4.65;;;7.30;93.10;;;;;;4990768;28;20042;-72
2022/11/25 06:43:27;;;;;;;14.52;4.47;;;7.30;91.00;;;;;;4991240;28;20419;-72
2022/11/25 06:45:54;;;;;;;20.20;5.03;;;;;;;;;;5005643;28;20054;-72
2022/11/25 06:48:21;;;;;;;13.45;4.80;;;7.30;97.70;;;;;;4990733;28;20056;-73
2022/11/25 06:50:55;;;;;;;18.15;4.68;;;7.30;91.00;;;;;;4990550;28;20046;-73
2022/11/25 06:53:22;;;;;;;17.45;5.45;;;;;;;;;;4989570;28;20050;-73
2022/11/25 06:55:50;;;;;;;15.82;4.57;;;;;;;;;;4990956;28;20108;-72
2022/11/25 06:58:17;;;;;;;18.70;5.18;;;;;;;;;;4990531;28;20050;-72
2022/11/25 07:00:45;;;;;;;12.18;5.70;;;7.30;91.00;;;;;;4990278;28;20060;-72
2022/11/25 07:03:12;;;;;;;14.45;5.13;;;;;;;;;;4992354;28;20072;-72
2022/11/25 07:05:39;;;;;;;17.35;5.45;;;;;;;;;;4991395;28;20137;-72
2022/11/25 07:08:05;;;;;;;23.58;5.72;;;6.90;97.70;;;;;;4992353;28;20058;-72
2022/11/25 07:10:34;;;;;;;12.30;5.13;;;7.30;91.00;;;;;;4990702;28;20054;-72
2022/11/25 07:13:01;;;;;;;16.13;5.55;;;;;;;;;;4963704;28;20141;-72
2022/11/25 07:15:27;;;;;;;15.10;5.45;;;7.30;97.50;;;;;;4947519;28;71490;-72
2022/11/25 07:17:55;;;;;;;19.98;6.18;;;6.70;97.60;;;;;;5008267;28;20488;-72
2022/11/25 07:20:24;;;;;;;20.75;5.85;;;7.30;97.70;;;;;;5011091;28;20052;-72
2022/11/25 07:22:51;;;;;;;16.25;5.63;;;;;;;;;;5009880;28;20583;-72
2022/11/25 07:25:17;;;;;;;12.35;5.75;;;6.70;93.90;;;;;;5011337;28;20392;-73
2022/11/25 07:27:44;;;;;;;13.45;5.85;;;7.40;97.70;;;;;;4994146;28;20064;-72
2022/11/25 07:30:11;;;;;;;22.90;5.82;;;7.40;97.80;;;;;;4988820;28;20121;-72
2022/11/25 07:32:38;;;;;;;14.52;5.93;;;7.40;97.80;;;;;;4989834;28;20054;-73
2022/11/25 07:35:07;;;;;;;18.85;5.82;;;7.00;97.70;;;;;;4870848;28;68912;-73
2022/11/25 07:37:34;;;;;;;19.13;5.70;;;;;;;;;;5001859;28;20496;-72
2022/11/25 07:40:01;;;;;;;18.98;5.93;;;7.30;97.80;;;;;;5009328;28;20152;-72
2022/11/25 07:42:28;;;;;;;26.25;6.68;;;;;;;;;;5009849;28;20060;-72
2022/11/25 07:44:55;;;;;;;15.80;6.50;;;7.30;97.90;;;;;;5010156;28;20057;-73
2022/11/25 07:47:23;;;;;;;21.20;6.72;;;;;;;;;;4992118;28;20106;-73
2022/11/25 07:49:51;;;;;;;12.88;5.97;;;;;;;;;;4992584;28;20046;-72
2022/11/25 07:52:19;;;;;;;14.17;6.33;;;7.30;91.10;;;;;;4122982;28;10000797;-72
2022/11/25 07:54:46;;;;;;;20.33;6.30;;;7.40;91.20;;;;;;4133482;28;10000748;-72
2022/11/25 07:57:13;;;;;;;19.58;6.32;;;7.40;97.80;;;;;;4999924;28;20058;-72
2022/11/25 07:59:40;;;;;;;19.65;6.28;;;7.30;97.80;;;;;;4990144;28;20050;-72
2022/11/25 08:02:08;;;;;;;15.07;5.97;;;7.40;97.70;;;;;;4989299;28;20201;-72
2022/11/25 08:04:36;;;;;;;19.02;6.43;;;7.50;98.00;;;;;;4991321;28;20153;-72
2022/11/25 08:07:03;;;;;;;15.98;5.68;;;;;;;;;;4998961;28;20064;-72
2022/11/25 08:09:31;;;;;;;21.15;5.80;;;7.50;91.20;;;;;;4998738;28;20054;-72
2022/11/25 08:11:57;;;;;;;17.73;5.78;;;7.50;97.90;;;;;;4991576;28;20042;-72
2022/11/25 08:14:24;;;;;;;18.83;6.15;;;7.00;97.70;;;;;;4992169;28;20065;-72
2022/11/25 08:16:51;;;;;;;13.50;5.35;;;7.50;95.60;;;;;;5001512;28;20495;-73
2022/11/25 08:19:18;;;;;;;19.33;6.07;;;7.50;91.30;;;;;;5012291;28;20056;-73
2022/11/25 08:21:46;;;;;;;18.08;6.00;;;;;;;;;;5013362;28;20168;-71
2022/11/25 08:24:14;;;;;;;12.25;5.30;;;;;;;;;;5012694;28;20060;-72
2022/11/25 08:26:42;;;;;;;11.10;5.22;;;7.40;98.00;;;;;;5006725;28;20054;-72
2022/11/25 08:29:10;;;;;;;17.25;5.47;;;7.60;98.00;;;;;;4992082;28;20058;-72
2022/11/25 08:31:38;;;;;;;14.63;5.20;;;;;;;;;;4993053;28;20057;-72
2022/11/25 08:34:04;;;;;;;18.67;5.00;;;7.70;97.90;;;;;;4993613;28;20050;-72
2022/11/25 08:36:31;;;;;;;17.95;5.90;;;;;;;;;;4994018;28;20059;-72
2022/11/25 08:38:59;;;;;;;13.60;5.38;;;6.10;90.90;;;;;;4994303;28;20412;-73
2022/11/25 08:41:27;;;;;;;19.25;5.55;;;7.60;92.30;;;;;;4993298;28;20435;-72
2022/11/25 08:43:55;;;;;;;17.88;6.00;;;7.70;96.20;;;;;;4993902;28;20143;-72
2022/11/25 08:46:24;;;;;;;12.60;5.05;;;7.60;91.30;;;;;;4996009;28;20060;-73
2022/11/25 08:48:51;;;;;;;17.48;5.10;;;7.70;97.90;;;;;;5013142;28;20050;-72
2022/11/25 08:51:19;;;;;;;18.58;5.43;;;7.90;92.50;;;;;;5012759;28;20140;-72
2022/11/25 08:53:46;;;;;;;15.55;5.35;;;;;;;;;;5012260;28;20416;-72
2022/11/25 08:56:13;;;;;;;18.88;6.13;;;7.20;97.90;;;;;;4997338;28;20058;-72
2022/11/25 08:58:40;;;;;;;21.05;5.80;;;;;;;;;;4993342;28;20056;-72
2022/11/25 09:01:09;;;;;;;12.07;5.15;;;7.80;98.10;;;;;;4992899;28;20567;-73
2022/11/25 09:03:36;;;;;;;15.65;4.90;;;7.80;98.10;;;;;;4993190;28;20121;-73
2022/11/25 09:06:03;;;;;;;16.38;5.10;;;;;;;;;;4992470;28;20137;-73
2022/11/25 09:08:31;;;;;;;12.15;4.45;;;;;;;;;;4993280;28;20050;-72
2022/11/25 09:10:58;;;;;;;14.00;6.18;;;;;;;;;;4992788;28;20108;-73
2022/11/25 09:13:25;;;;;;;18.02;5.30;;;7.90;94.40;;;;;;4982797;28;20151;-72
2022/11/25 09:15:52;;;;;;;14.00;4.88;;;;;;;;;;4973470;28;20077;-73
2022/11/25 09:18:24;;;;;;;11.80;4.82;;;7.90;91.40;;;;;;4973341;28;20053;-73
2022/11/25 09:20:51;;;;;;;15.77;5.55;;;;;;;;;;4971445;28;20055;-73
2022/11/25 09:23:19;;;;;;;17.98;5.00;;;7.90;98.10;;;;;;4973651;28;20154;-72
2022/11/25 09:25:50;;;;;;;14.52;5.10;;;7.90;98.00;;;;;;4973079;28;20059;-72
2022/11/25 09:28:17;;;;;;;15.07;5.05;;;;;;;;;;4984784;28;20048;-72
2022/11/25 09:30:44;;;;;;;9.57;4.57;;;7.90;91.90;;;;;;4991465;28;20141;-72
2022/11/25 09:33:11;;;;;;;14.35;5.20;;;;;;;;;;4992322;28;20121;-73
2022/11/25 09:35:39;;;;;;;14.45;4.82;;;8.00;98.00;;;;;;4992333;28;20060;-73
2022/11/25 09:38:06;;;;;;;15.40;5.25;;;8.20;98.10;;;;;;4992327;28;20394;-72
2022/11/25 09:40:35;;;;;;;10.20;4.93;;;8.10;91.40;;;;;;4975329;28;20057;-72
2022/11/25 09:48:48;;;;;;;12.73;5.15;;;8.20;91.30;;;;;;4992971;28;20050;-72
2022/11/25 09:51:18;;;;;;;12.45;5.07;;;7.80;97.80;;;;;;4992988;28;20054;-73
2022/11/25 09:53:47;;;;;;;16.48;5.45;;;8.30;98.00;;;;;;4992575;28;20173;-72
2022/11/25 09:56:18;;;;;;;14.98;5.03;;;8.30;91.30;;;;;;4991989;28;20129;-73
2022/11/25 09:58:48;;;;;;;17.02;5.45;;;8.30;91.30;;;;;;4992339;28;20085;-72
2022/11/25 10:01:17;;;;;;;15.32;5.60;;;8.30;91.30;;;;;;4990957;28;20163;-72
2022/11/25 10:03:45;;;;;;;11.73;4.53;;;8.40;97.80;;;;;;4991950;28;20129;-73
2022/11/25 10:06:14;;;;;;;9.38;4.70;;;8.40;91.30;;;;;;4991380;28;20514;-73
2022/11/25 10:08:43;;;;;;;13.07;5.10;;;7.90;97.70;;;;;;4991781;28;20061;-73
2022/11/25 10:11:18;;;;;;;10.77;4.95;;;8.40;91.20;;;;;;4991163;28;20055;-73
2022/11/25 10:13:46;;;;;;;;;;;8.40;91.40;;;;;;4992650;28;20141;-72
2022/11/25 10:16:19;;;;;;;14.15;5.15;;;8.50;91.30;;;;;;4992242;28;19921;-72
2022/11/25 10:18:50;;;;;;;12.35;5.60;;;8.50;91.20;;;;;;4991735;28;20089;-73
2022/11/25 10:21:17;;;;;;;14.40;5.72;;;;;;;;;;4991334;28;20150;-73
2022/11/25 10:23:45;;;;;;;9.50;5.00;;;8.70;97.70;;;;;;4992072;28;20054;-72
2022/11/25 10:26:13;;;;;;;13.93;5.75;;;8.70;97.60;;;;;;4991644;28;20064;-73
2022/11/25 10:28:41;;;;;;;15.52;5.95;;;7.80;97.30;;;;;;4992135;28;20109;-72
2022/11/25 10:31:11;;;;;;;14.43;5.18;;;8.70;97.60;;;;;;4990988;28;20050;-73
2022/11/25 10:33:40;;;;;;;16.40;5.32;;;8.70;91.10;;;;;;4990601;28;20057;-73
2022/11/25 10:36:10;;;;;;;14.00;4.85;;;8.70;97.30;;;;;;4991257;28;20046;-73
2022/11/25 10:38:40;;;;;;;13.57;5.07;;;8.70;91.00;;;;;;5007553;28;20435;-72
2022/11/25 10:41:09;;;;;;;15.13;5.30;;;9.90;97.80;;;;;;4990903;28;20053;-73
2022/11/25 10:43:36;;;;;;;17.55;5.63;;;;;;;;;;4991101;28;20052;-73
2022/11/25 10:46:08;;;;;;;10.57;4.90;;;9.00;91.00;;;;;;4991222;28;20054;-73
2022/11/25 10:48:46;;;;;;;8.43;4.63;;;8.90;91.50;;;;;;4990473;28;20058;-73
2022/11/25 10:51:20;;;;;;;8.43;4.85;;;8.80;97.40;;;;;;4988266;28;20058;-73
2022/11/25 10:54:08;;;;;;;13.32;4.80;;;8.80;90.90;;;;;;4991196;28;20060;-73
2022/11/25 10:56:44;;;;;;;17.15;5.25;;;8.90;90.90;;;;;;4990983;28;20050;-73
2022/11/25 10:59:14;;;;;;;;;;;8.90;91.10;;;;;;4991397;28;20061;-73
2022/11/25 11:01:41;;;;;;;11.95;4.97;;;8.40;97.10;;;;;;4989665;28;20287;-73
2022/11/25 11:04:13;;;;;;;9.73;5.13;;;8.00;97.00;;;;;;4991260;28;20141;-73
2022/11/25 11:06:41;;;;;;;12.88;5.28;;;9.00;90.80;;;;;;4988512;28;20756;-73
2022/11/25 11:09:31;;;;;;;9.80;4.50;;;9.10;90.70;;;;;;4992306;28;20042;-73
2022/11/25 11:12:00;;;;;;;11.77;4.47;;;8.20;96.90;;;;;;4113357;28;10001020;-73
2022/11/25 11:14:28;;;;;;;10.02;4.68;;;10.10;97.10;;;;;;4990809;28;20137;-73
2022/11/25 11:16:56;;;;;;;10.05;4.30;;;9.20;96.90;;;;;;4992055;28;20104;-73
2022/11/25 11:19:24;;;;;;;11.00;4.25;;;9.40;96.90;;;;;;4991571;28;20093;-73
2022/11/25 11:21:51;;;;;;;8.85;4.40;;;9.40;94.40;;;;;;4989908;28;20145;-74
2022/11/25 11:24:25;;;;;;;9.10;3.90;;;9.20;96.80;;;;;;4989422;28;20379;-73
2022/11/25 11:27:03;;;;;;;16.88;4.50;;;9.30;90.40;;;;;;4990685;28;20133;-73
2022/11/25 11:29:30;;;;;;;11.73;3.97;;;8.90;96.60;;;;;;4990725;28;20137;-73
2022/11/25 11:31:58;;;;;;;14.20;4.07;;;9.50;90.30;;;;;;4989523;28;20549;-73
2022/11/25 11:34:52;;;;;;;9.73;3.53;;;8.60;96.40;;;;;;4989865;28;20053;-73
2022/11/25 11:37:39;;;;;;;12.15;3.92;;;9.50;90.10;;;;;;4985445;28;20559;-74
2022/11/25 11:40:31;;;;;;;11.65;4.10;;;10.40;92.80;;;;;;4986288;28;20519;-74
2022/11/25 11:43:16;;;;;;;12.65;3.97;;;9.60;96.30;;;;;;4967366;28;20407;-74
2022/11/25 11:45:54;;;;;;;9.73;3.95;;;9.60;93.20;;;;;;4990295;28;20092;-73
2022/11/25 11:48:24;;;;;;;11.15;3.78;;;9.70;89.80;;;;;;4990653;28;20050;-73
2022/11/25 11:50:52;;;;;;;14.18;3.42;;;;;;;;;;4989211;28;20052;-73
2022/11/25 11:53:22;;;;;;;8.25;3.45;;;9.10;95.80;;;;;;4990058;28;20507;-73
2022/11/25 11:55:54;;;;;;;11.80;3.40;;;9.80;89.50;;;;;;4990199;28;20050;-74
2022/11/25 11:58:28;;;;;;;11.48;3.53;;;9.80;96.00;;;;;;4990175;28;20054;-73
2022/11/25 12:00:59;;;;;;;8.73;3.47;;;9.80;89.30;;;;;;4989234;28;20043;-73
2022/11/25 12:03:26;;;;;;;14.27;3.53;;;10.10;95.80;;;;;;4990502;28;20050;-74
2022/11/25 12:05:56;;;;;;;10.50;3.30;;;9.90;95.90;;;;;;4993039;28;20050;-74
2022/11/25 12:08:26;;;;;;;10.38;3.85;;;9.80;89.00;;;;;;4989517;28;20042;-73
2022/11/25 12:10:54;;;;;;;8.63;3.35;;;10.90;95.80;;;;;;4989071;28;20081;-73
2022/11/25 12:13:25;;;;;;;12.95;3.72;;;9.80;95.80;;;;;;4989656;28;20129;-73
2022/11/25 12:15:54;;;;;;;8.25;3.17;;;9.80;95.60;;;;;;4987813;28;20502;-73
2022/11/25 12:18:29;;;;;;;10.98;3.80;;;9.90;90.10;;;;;;4987886;28;20434;-73
2022/11/25 12:20:59;;;;;;;11.30;3.40;;;10.20;94.90;;;;;;4989510;28;20134;-73
2022/11/25 12:23:28;;;;;;;10.98;3.25;;;10.00;87.90;;;;;;4971899;28;20055;-73
2022/11/25 12:25:56;;;;;;;14.07;3.28;;;10.10;95.20;;;;;;4990041;28;20064;-73
2022/11/25 12:28:28;;;;;;;10.75;3.10;;;10.00;95.20;;;;;;4989756;28;20050;-73
2022/11/25 12:31:01;;;;;;;9.90;3.10;;;9.20;92.70;;;;;;4989438;28;20057;-73
2022/11/25 12:33:30;;;;;;;10.52;3.53;;;9.90;87.70;;;;;;4990343;28;20088;-72
2022/11/25 12:36:00;;;;;;;12.60;3.28;;;10.00;95.10;;;;;;4990038;28;20054;-74
2022/11/25 12:38:33;;;;;;;11.27;3.00;;;9.40;94.80;;;;;;4990102;28;20117;-74
2022/11/25 12:41:02;;;;;;;8.63;2.70;;;10.00;88.00;;;;;;4969839;28;20058;-74
2022/11/25 12:43:34;;;;;;;7.45;2.80;;;10.10;94.60;;;;;;4971134;28;20492;-74
2022/11/25 12:46:07;;;;;;;8.75;2.85;;;9.40;94.80;;;;;;4970173;28;20054;-73
2022/11/25 12:48:33;;;;;;;8.15;3.22;;;10.20;95.10;;;;;;4970605;28;20138;-74
2022/11/25 12:51:02;;;;;;;8.50;2.60;;;10.10;87.40;;;;;;4969834;28;20970;-73
2022/11/25 12:53:32;;;;;;;14.35;2.80;;;10.20;88.10;;;;;;4970866;28;20141;-74
2022/11/25 12:55:59;;;;;;;10.13;2.45;;;;;;;;;;4973251;28;20059;-74
2022/11/25 12:58:49;;;;;;;7.53;2.25;;;10.20;94.60;;;;;;4974064;28;20113;-74
2022/11/25 13:01:42;;;;;;;12.27;2.78;;;9.20;86.10;;;;;;4973034;28;20098;-74
2022/11/25 13:04:49;;;;;;;12.43;2.85;;;10.40;90.40;;;;;;4974015;28;20054;-74
2022/11/25 13:07:24;;;;;;;15.50;3.00;;;10.80;94.70;;;;;;4974046;28;20522;-73
2022/11/25 13:10:14;;;;;;;9.80;2.60;;;10.20;86.60;;;;;;4974003;28;20054;-74
2022/11/25 13:12:45;;;;;;;15.43;2.78;;;10.40;91.90;;;;;;4993139;28;20172;-74
2022/11/25 13:15:23;;;;;;;9.38;2.28;;;10.30;94.60;;;;;;4993053;28;20141;-74
2022/11/25 13:17:50;;;;;;;9.20;2.40;;;10.30;93.40;;;;;;4993419;28;20141;-74
2022/11/25 13:20:42;;;;;;;11.90;2.83;;;11.00;94.80;;;;;;4992481;28;20047;-74
2022/11/25 13:23:26;;;;;;;10.43;2.78;;;10.20;86.70;;;;;;4992577;28;20534;-74
2022/11/25 13:25:55;;;;;;;9.43;2.53;;;10.30;94.60;;;;;;4993163;28;20141;-74
2022/11/25 13:28:30;;;;;;;11.25;3.10;;;10.30;86.70;;;;;;5016793;28;20412;-74
2022/11/25 13:31:14;;;;;;;14.30;2.78;;;10.30;94.60;;;;;;4986612;28;20051;-74
2022/11/25 13:34:08;;;;;;;14.82;3.15;;;10.40;93.40;;;;;;4987264;28;20134;-74
2022/11/25 13:36:46;;;;;;;10.35;2.63;;;10.60;94.60;;;;;;4976486;28;20488;-73
2022/11/25 13:39:16;;;;;;;9.73;2.85;;;9.40;90.60;;;;;;4989569;28;20446;-74
2022/11/25 13:41:48;;;;;;;13.35;2.55;;;10.50;94.50;;;;;;4992006;28;20046;-74
2022/11/25 13:44:27;;;;;;;12.57;2.58;;;10.50;94.40;;;;;;4991498;28;20097;-73
2022/11/25 13:46:55;;;;;;;14.40;2.90;;;10.30;86.20;;;;;;4992720;28;20058;-74
2022/11/25 13:49:28;;;;;;;8.93;2.45;;;10.50;94.30;;;;;;4992760;28;20078;-74
2022/11/25 13:51:56;;;;;;;12.68;2.78;;;10.10;86.00;;;;;;4991465;28;20387;-73
2022/11/25 13:54:25;;;;;;;8.93;2.75;;;10.40;93.30;;;;;;4993835;28;20129;-74
2022/11/25 13:57:17;;;;;;;14.25;3.28;;;10.40;94.30;;;;;;4992806;28;20555;-74
2022/11/25 13:59:52;;;;;;;11.07;2.97;;;10.40;94.40;;;;;;4992211;28;20462;-73
2022/11/25 14:02:43;;;;;;;9.43;2.42;;;10.20;86.00;;;;;;4992702;28;20081;-74
2022/11/25 14:05:39;;;;;;;11.48;2.70;;;10.70;86.70;;;;;;4990019;28;20058;-73
2022/11/25 14:08:11;;;;;;;9.27;2.72;;;10.40;92.20;;;;;;4989222;28;20054;-74